X  CloseMetar Aviation Weather Data     EBBR Brussels

Temperature

17°C Temperature

15°C Dewpoint

88% Humidity



Wind

 5 KM/H

 3 MPH

 1 M/S

 3 KTS



240°
West South
West
Current Conditions

Mostly Cloudy Mostly Cloudy
Pressure 1004.92 (hPa) - 29.68 (in)
Visibility 6.2 (mi) - 10 (km)
Airport
Airport-code EBBR

Location Brussels 14 (km)

Metar:
EBBR 181050Z 24003KT 200V270 9999 BKN010 BKN016 17/15 Q1005 BECMG BKN015

Time: 18-08-2019 12:50